sensor_id;sensor_type;location;lat;lon;timestamp;pressure;altitude;pressure_sealevel;temperature;humidity
61345;BME280;47216;42.656;23.232;2023-02-14T00:01:49;95276.88;;;1.15;67.94
61345;BME280;47216;42.656;23.232;2023-02-14T00:04:16;95283.91;;;1.13;68.32
61345;BME280;47216;42.656;23.232;2023-02-14T00:06:42;95284.63;;;1.23;67.95
61345;BME280;47216;42.656;23.232;2023-02-14T00:09:10;95287.38;;;1.30;67.74
61345;BME280;47216;42.656;23.232;2023-02-14T00:11:38;95283.09;;;1.39;67.63
61345;BME280;47216;42.656;23.232;2023-02-14T00:14:05;95291.09;;;1.36;67.39
61345;BME280;47216;42.656;23.232;2023-02-14T00:16:49;95296.28;;;1.44;67.55
61345;BME280;47216;42.656;23.232;2023-02-14T00:19:16;95293.53;;;1.45;67.41
61345;BME280;47216;42.656;23.232;2023-02-14T00:21:43;95298.19;;;1.42;67.93
61345;BME280;47216;42.656;23.232;2023-02-14T00:24:10;95294.19;;;1.47;67.70
61345;BME280;47216;42.656;23.232;2023-02-14T00:26:38;95295.63;;;1.50;67.61
61345;BME280;47216;42.656;23.232;2023-02-14T00:29:05;95300.50;;;1.53;67.59
61345;BME280;47216;42.656;23.232;2023-02-14T00:31:32;95299.22;;;1.57;67.92
61345;BME280;47216;42.656;23.232;2023-02-14T00:33:59;95294.22;;;1.56;67.91
61345;BME280;47216;42.656;23.232;2023-02-14T00:36:25;95300.22;;;1.64;67.50
61345;BME280;47216;42.656;23.232;2023-02-14T00:38:52;95297.97;;;1.78;67.59
61345;BME280;47216;42.656;23.232;2023-02-14T00:41:18;95290.25;;;1.78;67.03
61345;BME280;47216;42.656;23.232;2023-02-14T00:43:46;95291.59;;;1.90;67.18
61345;BME280;47216;42.656;23.232;2023-02-14T00:46:13;95284.84;;;1.97;67.19
61345;BME280;47216;42.656;23.232;2023-02-14T00:48:40;95294.34;;;2.05;66.46
61345;BME280;47216;42.656;23.232;2023-02-14T00:51:06;95293.03;;;2.01;66.56
61345;BME280;47216;42.656;23.232;2023-02-14T00:53:33;95290.66;;;1.99;66.64
61345;BME280;47216;42.656;23.232;2023-02-14T00:56:00;95279.56;;;1.99;66.46
61345;BME280;47216;42.656;23.232;2023-02-14T00:58:27;95280.38;;;1.99;66.41
61345;BME280;47216;42.656;23.232;2023-02-14T01:00:55;95275.53;;;2.04;65.81
61345;BME280;47216;42.656;23.232;2023-02-14T01:03:21;95266.88;;;2.14;65.70
61345;BME280;47216;42.656;23.232;2023-02-14T01:05:48;95274.25;;;2.08;66.23
61345;BME280;47216;42.656;23.232;2023-02-14T01:08:15;95269.41;;;2.05;65.85
61345;BME280;47216;42.656;23.232;2023-02-14T01:10:42;95262.50;;;2.14;65.19
61345;BME280;47216;42.656;23.232;2023-02-14T01:13:09;95270.06;;;1.99;66.15
61345;BME280;47216;42.656;23.232;2023-02-14T01:15:37;95257.84;;;1.93;66.99
61345;BME280;47216;42.656;23.232;2023-02-14T01:18:05;95265.06;;;1.98;66.74
61345;BME280;47216;42.656;23.232;2023-02-14T01:20:32;95261.88;;;2.04;66.02
61345;BME280;47216;42.656;23.232;2023-02-14T01:22:58;95259.44;;;2.02;65.82
61345;BME280;47216;42.656;23.232;2023-02-14T01:25:25;95258.16;;;1.98;66.08
61345;BME280;47216;42.656;23.232;2023-02-14T01:27:52;95251.41;;;1.97;66.00
61345;BME280;47216;42.656;23.232;2023-02-14T01:30:18;95245.31;;;2.06;65.59
61345;BME280;47216;42.656;23.232;2023-02-14T01:32:45;95242.25;;;2.03;65.58
61345;BME280;47216;42.656;23.232;2023-02-14T01:35:13;95246.28;;;1.97;66.60
61345;BME280;47216;42.656;23.232;2023-02-14T01:37:39;95250.78;;;2.03;65.74
61345;BME280;47216;42.656;23.232;2023-02-14T01:40:07;95243.22;;;2.02;65.97
61345;BME280;47216;42.656;23.232;2023-02-14T01:42:34;95242.72;;;1.98;65.73
61345;BME280;47216;42.656;23.232;2023-02-14T01:45:01;95231.47;;;2.07;66.10
61345;BME280;47216;42.656;23.232;2023-02-14T01:47:29;95224.25;;;2.11;65.63
61345;BME280;47216;42.656;23.232;2023-02-14T01:49:58;95214.44;;;2.06;65.33
61345;BME280;47216;42.656;23.232;2023-02-14T01:52:29;95218.63;;;2.16;65.33
61345;BME280;47216;42.656;23.232;2023-02-14T01:54:58;95213.78;;;2.13;65.31
61345;BME280;47216;42.656;23.232;2023-02-14T01:57:27;95211.38;;;2.11;66.10
61345;BME280;47216;42.656;23.232;2023-02-14T01:59:56;95213.78;;;2.13;65.50
61345;BME280;47216;42.656;23.232;2023-02-14T02:02:44;95219.25;;;2.09;65.24
61345;BME280;47216;42.656;23.232;2023-02-14T02:05:11;95215.88;;;2.17;65.15
61345;BME280;47216;42.656;23.232;2023-02-14T02:07:40;95220.56;;;2.14;65.08
61345;BME280;47216;42.656;23.232;2023-02-14T02:10:07;95212.19;;;2.12;65.84
61345;BME280;47216;42.656;23.232;2023-02-14T02:12:34;95216.69;;;2.09;65.80
61345;BME280;47216;42.656;23.232;2023-02-14T02:15:02;95217.03;;;2.06;65.68
61345;BME280;47216;42.656;23.232;2023-02-14T02:17:31;95229.22;;;2.13;65.45
61345;BME280;47216;42.656;23.232;2023-02-14T02:23:02;95213.94;;;2.19;65.19
61345;BME280;47216;42.656;23.232;2023-02-14T02:25:38;95213.81;;;2.29;64.62
61345;BME280;47216;42.656;23.232;2023-02-14T02:28:20;95211.38;;;2.27;64.88
61345;BME280;47216;42.656;23.232;2023-02-14T02:31:02;95208.31;;;2.24;65.71
61345;BME280;47216;42.656;23.232;2023-02-14T02:39:24;95180.00;;;2.24;64.64
61345;BME280;47216;42.656;23.232;2023-02-14T02:41:57;95171.97;;;2.27;64.73
61345;BME280;47216;42.656;23.232;2023-02-14T02:44:28;95168.13;;;2.23;65.24
61345;BME280;47216;42.656;23.232;2023-02-14T02:47:00;95173.25;;;2.15;65.58
61345;BME280;47216;42.656;23.232;2023-02-14T02:49:32;95180.03;;;2.16;65.01
61345;BME280;47216;42.656;23.232;2023-02-14T02:52:19;95182.59;;;2.16;64.53
61345;BME280;47216;42.656;23.232;2023-02-14T02:55:09;95182.78;;;2.06;65.05
61345;BME280;47216;42.656;23.232;2023-02-14T02:57:38;95179.88;;;2.01;65.53
61345;BME280;47216;42.656;23.232;2023-02-14T03:00:05;95185.66;;;1.95;65.96
61345;BME280;47216;42.656;23.232;2023-02-14T03:02:33;95178.75;;;2.03;65.25
61345;BME280;47216;42.656;23.232;2023-02-14T03:05:21;95177.78;;;1.96;65.39
61345;BME280;47216;42.656;23.232;2023-02-14T03:07:47;95182.78;;;1.89;65.83
61345;BME280;47216;42.656;23.232;2023-02-14T03:10:16;95179.06;;;1.84;65.70
61345;BME280;47216;42.656;23.232;2023-02-14T03:15:32;95186.13;;;1.82;65.77
61345;BME280;47216;42.656;23.232;2023-02-14T03:18:05;95180.03;;;1.91;65.32
61345;BME280;47216;42.656;23.232;2023-02-14T03:20:52;95173.91;;;1.84;65.57
61345;BME280;47216;42.656;23.232;2023-02-14T03:23:20;95171.50;;;1.82;65.70
61345;BME280;47216;42.656;23.232;2023-02-14T03:25:51;95162.34;;;1.88;65.37
61345;BME280;47216;42.656;23.232;2023-02-14T03:28:25;95148.88;;;1.94;65.54
61345;BME280;47216;42.656;23.232;2023-02-14T03:30:56;95145.16;;;1.97;64.70
61345;BME280;47216;42.656;23.232;2023-02-14T03:33:25;95140.31;;;1.94;64.82
61345;BME280;47216;42.656;23.232;2023-02-14T03:35:55;95138.25;;;1.81;65.03
61345;BME280;47216;42.656;23.232;2023-02-14T03:38:26;95150.47;;;1.79;65.35
61345;BME280;47216;42.656;23.232;2023-02-14T03:40:58;95149.84;;;1.85;65.51
61345;BME280;47216;42.656;23.232;2023-02-14T03:43:27;95157.84;;;1.82;65.57
61345;BME280;47216;42.656;23.232;2023-02-14T03:45:57;95149.47;;;1.80;65.58
61345;BME280;47216;42.656;23.232;2023-02-14T03:48:24;95151.56;;;1.84;65.63
61345;BME280;47216;42.656;23.232;2023-02-14T03:50:52;95153.69;;;1.81;65.53
61345;BME280;47216;42.656;23.232;2023-02-14T03:53:20;95150.78;;;1.92;65.02
61345;BME280;47216;42.656;23.232;2023-02-14T03:55:50;95140.16;;;1.95;64.88
61345;BME280;47216;42.656;23.232;2023-02-14T03:58:21;95137.91;;;1.84;65.28
61345;BME280;47216;42.656;23.232;2023-02-14T04:00:49;95135.38;;;1.76;65.41
61345;BME280;47216;42.656;23.232;2023-02-14T04:03:18;95122.19;;;1.79;65.02
61345;BME280;47216;42.656;23.232;2023-02-14T04:05:45;95134.88;;;1.80;65.17
61345;BME280;47216;42.656;23.232;2023-02-14T04:08:19;95120.41;;;1.87;64.20
61345;BME280;47216;42.656;23.232;2023-02-14T04:10:46;95118.50;;;1.89;64.51
61345;BME280;47216;42.656;23.232;2023-02-14T04:13:13;95127.63;;;1.84;65.19
61345;BME280;47216;42.656;23.232;2023-02-14T04:15:41;95133.25;;;1.79;65.24
61345;BME280;47216;42.656;23.232;2023-02-14T04:18:07;95114.94;;;1.82;64.96
61345;BME280;47216;42.656;23.232;2023-02-14T04:20:52;95117.19;;;1.77;65.43
61345;BME280;47216;42.656;23.232;2023-02-14T04:23:18;95120.56;;;1.86;64.96
61345;BME280;47216;42.656;23.232;2023-02-14T04:25:45;95114.13;;;1.82;65.36
61345;BME280;47216;42.656;23.232;2023-02-14T04:28:11;95127.81;;;1.74;65.33
61345;BME280;47216;42.656;23.232;2023-02-14T04:30:38;95125.53;;;1.79;64.67
61345;BME280;47216;42.656;23.232;2023-02-14T04:33:06;95130.69;;;1.79;64.75
61345;BME280;47216;42.656;23.232;2023-02-14T04:35:33;95133.91;;;1.81;65.02
61345;BME280;47216;42.656;23.232;2023-02-14T04:37:59;95123.44;;;1.91;64.16
61345;BME280;47216;42.656;23.232;2023-02-14T04:40:26;95118.63;;;1.88;64.59
61345;BME280;47216;42.656;23.232;2023-02-14T04:42:52;95125.41;;;1.81;65.08
61345;BME280;47216;42.656;23.232;2023-02-14T04:45:19;95122.81;;;1.81;64.84
61345;BME280;47216;42.656;23.232;2023-02-14T04:47:45;95102.91;;;1.83;64.85
61345;BME280;47216;42.656;23.232;2023-02-14T04:50:13;95095.97;;;1.83;64.50
61345;BME280;47216;42.656;23.232;2023-02-14T04:52:40;95100.94;;;1.68;64.95
61345;BME280;47216;42.656;23.232;2023-02-14T04:55:07;95084.09;;;1.66;64.95
61345;BME280;47216;42.656;23.232;2023-02-14T04:57:34;95090.22;;;1.65;65.36
61345;BME280;47216;42.656;23.232;2023-02-14T05:00:01;95094.06;;;1.69;64.70
61345;BME280;47216;42.656;23.232;2023-02-14T05:02:27;95088.44;;;1.65;64.67
61345;BME280;47216;42.656;23.232;2023-02-14T05:04:54;95097.41;;;1.61;64.57
61345;BME280;47216;42.656;23.232;2023-02-14T05:07:22;95096.47;;;1.71;64.80
61345;BME280;47216;42.656;23.232;2023-02-14T05:09:48;95096.47;;;1.71;64.59
61345;BME280;47216;42.656;23.232;2023-02-14T05:12:15;95075.59;;;1.49;64.27
61345;BME280;47216;42.656;23.232;2023-02-14T05:14:42;95108.66;;;1.68;64.79
61345;BME280;47216;42.656;23.232;2023-02-14T05:17:08;95106.44;;;1.74;64.74
61345;BME280;47216;42.656;23.232;2023-02-14T05:19:35;95092.59;;;1.75;64.56
61345;BME280;47216;42.656;23.232;2023-02-14T05:22:01;95099.22;;;1.69;64.85
61345;BME280;47216;42.656;23.232;2023-02-14T05:24:29;95109.50;;;1.69;64.60
61345;BME280;47216;42.656;23.232;2023-02-14T05:26:56;95091.50;;;1.69;64.42
61345;BME280;47216;42.656;23.232;2023-02-14T05:29:22;95086.19;;;1.71;64.58
61345;BME280;47216;42.656;23.232;2023-02-14T05:31:49;95089.72;;;1.70;64.72
61345;BME280;47216;42.656;23.232;2023-02-14T05:34:15;95095.50;;;1.80;64.67
61345;BME280;47216;42.656;23.232;2023-02-14T05:36:42;95091.28;;;1.87;64.64
61345;BME280;47216;42.656;23.232;2023-02-14T05:39:09;95100.00;;;1.86;64.29
61345;BME280;47216;42.656;23.232;2023-02-14T05:41:39;95097.28;;;1.71;64.77
61345;BME280;47216;42.656;23.232;2023-02-14T05:44:06;95091.16;;;1.72;64.66
61345;BME280;47216;42.656;23.232;2023-02-14T05:46:33;95085.53;;;1.77;64.44
61345;BME280;47216;42.656;23.232;2023-02-14T05:48:59;95091.66;;;1.76;65.02
61345;BME280;47216;42.656;23.232;2023-02-14T05:51:26;95094.84;;;1.78;64.86
61345;BME280;47216;42.656;23.232;2023-02-14T05:53:52;95084.09;;;1.66;64.50
61345;BME280;47216;42.656;23.232;2023-02-14T05:56:19;95086.34;;;1.69;65.14
61345;BME280;47216;42.656;23.232;2023-02-14T05:58:46;95090.06;;;1.66;65.53
61345;BME280;47216;42.656;23.232;2023-02-14T06:01:13;95087.47;;;1.66;65.03
61345;BME280;47216;42.656;23.232;2023-02-14T06:03:39;95090.06;;;1.66;65.19
61345;BME280;47216;42.656;23.232;2023-02-14T06:06:06;95085.38;;;1.70;64.82
61345;BME280;47216;42.656;23.232;2023-02-14T06:08:33;95087.13;;;1.78;65.30
61345;BME280;47216;42.656;23.232;2023-02-14T06:10:59;95094.22;;;1.92;65.09
61345;BME280;47216;42.656;23.232;2023-02-14T06:13:26;95096.59;;;1.94;64.83
61345;BME280;47216;42.656;23.232;2023-02-14T06:15:54;95102.69;;;2.01;64.52
61345;BME280;47216;42.656;23.232;2023-02-14T06:18:20;95101.91;;;2.00;64.40
61345;BME280;47216;42.656;23.232;2023-02-14T06:20:47;95102.53;;;2.10;63.52
61345;BME280;47216;42.656;23.232;2023-02-14T06:23:13;95096.25;;;2.13;63.76
61345;BME280;47216;42.656;23.232;2023-02-14T06:25:40;95098.00;;;2.21;64.15
61345;BME280;47216;42.656;23.232;2023-02-14T06:28:06;95102.50;;;2.19;63.75
61345;BME280;47216;42.656;23.232;2023-02-14T06:30:33;95105.56;;;2.22;63.80
61345;BME280;47216;42.656;23.232;2023-02-14T06:33:01;95102.03;;;2.23;63.74
61345;BME280;47216;42.656;23.232;2023-02-14T06:35:27;95104.41;;;2.33;63.21
61345;BME280;47216;42.656;23.232;2023-02-14T06:37:54;95107.63;;;2.35;63.63
61345;BME280;47216;42.656;23.232;2023-02-14T06:40:20;95099.94;;;2.27;64.23
61345;BME280;47216;42.656;23.232;2023-02-14T06:42:48;95095.44;;;2.29;64.22
61345;BME280;47216;42.656;23.232;2023-02-14T06:45:14;95101.69;;;2.26;63.52
61345;BME280;47216;42.656;23.232;2023-02-14T06:47:41;95116.81;;;2.21;64.33
61345;BME280;47216;42.656;23.232;2023-02-14T06:50:09;95111.19;;;2.26;63.78
61345;BME280;47216;42.656;23.232;2023-02-14T06:52:36;95106.56;;;2.13;64.20
61345;BME280;47216;42.656;23.232;2023-02-14T06:55:03;95095.44;;;2.13;63.95
61345;BME280;47216;42.656;23.232;2023-02-14T06:57:29;95090.78;;;2.16;64.26
61345;BME280;47216;42.656;23.232;2023-02-14T06:59:56;95089.66;;;2.19;64.54
61345;BME280;47216;42.656;23.232;2023-02-14T07:02:22;95092.53;;;2.24;64.19
61345;BME280;47216;42.656;23.232;2023-02-14T07:04:49;95086.09;;;2.28;64.60
61345;BME280;47216;42.656;23.232;2023-02-14T07:07:17;95088.16;;;2.33;64.48
61345;BME280;47216;42.656;23.232;2023-02-14T07:09:43;95088.94;;;2.41;64.19
61345;BME280;47216;42.656;23.232;2023-02-14T07:12:10;95079.78;;;2.39;64.98
61345;BME280;47216;42.656;23.232;2023-02-14T07:14:36;95075.78;;;2.28;65.10
61345;BME280;47216;42.656;23.232;2023-02-14T07:17:03;95074.66;;;2.39;64.69
61345;BME280;47216;42.656;23.232;2023-02-14T07:19:29;95076.72;;;2.43;65.41
61345;BME280;47216;42.656;23.232;2023-02-14T07:21:56;95080.28;;;2.34;65.27
61345;BME280;47216;42.656;23.232;2023-02-14T07:24:24;95089.94;;;2.32;65.38
61345;BME280;47216;42.656;23.232;2023-02-14T07:26:51;95072.53;;;2.42;65.69
61345;BME280;47216;42.656;23.232;2023-02-14T07:29:17;95087.66;;;2.45;65.00
61345;BME280;47216;42.656;23.232;2023-02-14T07:31:44;95084.59;;;2.50;65.48
61345;BME280;47216;42.656;23.232;2023-02-14T07:34:10;95088.59;;;2.52;65.20
61345;BME280;47216;42.656;23.232;2023-02-14T07:36:37;95083.81;;;2.41;66.01
61345;BME280;47216;42.656;23.232;2023-02-14T07:39:04;95074.94;;;2.52;66.03
61345;BME280;47216;42.656;23.232;2023-02-14T07:41:31;95086.72;;;2.38;66.10
61345;BME280;47216;42.656;23.232;2023-02-14T07:43:58;95076.72;;;2.43;66.42
61345;BME280;47216;42.656;23.232;2023-02-14T07:46:25;95079.94;;;2.45;66.64
61345;BME280;47216;42.656;23.232;2023-02-14T07:48:51;95093.91;;;2.51;65.80
61345;BME280;47216;42.656;23.232;2023-02-14T07:51:18;95090.38;;;2.52;65.61
61345;BME280;47216;42.656;23.232;2023-02-14T07:53:44;95087.31;;;2.40;65.86
61345;BME280;47216;42.656;23.232;2023-02-14T07:56:11;95101.03;;;2.41;66.68
61345;BME280;47216;42.656;23.232;2023-02-14T07:58:38;95095.38;;;2.45;66.42
61345;BME280;47216;42.656;23.232;2023-02-14T08:01:05;95099.84;;;2.51;66.04
61345;BME280;47216;42.656;23.232;2023-02-14T08:03:32;95098.97;;;2.67;65.65
61345;BME280;47216;42.656;23.232;2023-02-14T08:05:58;95097.22;;;2.68;66.06
61345;BME280;47216;42.656;23.232;2023-02-14T08:08:25;95102.69;;;2.65;66.57
61345;BME280;47216;42.656;23.232;2023-02-14T08:10:52;95092.44;;;2.57;65.97
61345;BME280;47216;42.656;23.232;2023-02-14T08:13:18;95112.03;;;2.66;66.46
61345;BME280;47216;42.656;23.232;2023-02-14T08:15:45;95106.91;;;2.66;66.92
61345;BME280;47216;42.656;23.232;2023-02-14T08:18:32;95112.84;;;2.66;66.79
61345;BME280;47216;42.656;23.232;2023-02-14T08:20:59;95114.97;;;2.55;66.99
61345;BME280;47216;42.656;23.232;2023-02-14T08:23:25;95117.72;;;2.53;66.36
61345;BME280;47216;42.656;23.232;2023-02-14T08:25:52;95113.69;;;2.50;67.12
61345;BME280;47216;42.656;23.232;2023-02-14T08:28:18;95125.44;;;2.53;67.30
61345;BME280;47216;42.656;23.232;2023-02-14T08:30:46;95127.22;;;2.52;67.57
61345;BME280;47216;42.656;23.232;2023-02-14T08:33:13;95118.06;;;2.50;67.37
61345;BME280;47216;42.656;23.232;2023-02-14T08:35:39;95115.28;;;2.51;66.99
61345;BME280;47216;42.656;23.232;2023-02-14T08:38:06;95113.03;;;2.57;67.68
61345;BME280;47216;42.656;23.232;2023-02-14T08:40:32;95105.47;;;2.55;67.05
61345;BME280;47216;42.656;23.232;2023-02-14T08:42:59;95112.34;;;2.63;67.18
61345;BME280;47216;42.656;23.232;2023-02-14T08:45:25;95109.13;;;2.69;67.16
61345;BME280;47216;42.656;23.232;2023-02-14T08:47:53;95117.22;;;2.58;67.95
61345;BME280;47216;42.656;23.232;2023-02-14T08:50:20;95118.84;;;2.50;67.39
61345;BME280;47216;42.656;23.232;2023-02-14T08:52:46;95118.78;;;2.67;68.20
61345;BME280;47216;42.656;23.232;2023-02-14T08:55:13;95121.34;;;2.75;67.24
61345;BME280;47216;42.656;23.232;2023-02-14T08:57:39;95118.72;;;2.83;67.87
61345;BME280;47216;42.656;23.232;2023-02-14T09:00:08;95121.34;;;2.75;68.43
61345;BME280;47216;42.656;23.232;2023-02-14T09:02:35;95121.28;;;2.91;67.82
61345;BME280;47216;42.656;23.232;2023-02-14T09:05:03;95122.47;;;3.12;67.89
61345;BME280;47216;42.656;23.232;2023-02-14T09:07:30;95126.66;;;3.05;67.39
61345;BME280;47216;42.656;23.232;2023-02-14T09:09:56;95124.00;;;2.90;67.71
61345;BME280;47216;42.656;23.232;2023-02-14T09:12:23;95106.81;;;2.82;69.19
61345;BME280;47216;42.656;23.232;2023-02-14T09:14:50;95118.78;;;2.67;69.14
61345;BME280;47216;42.656;23.232;2023-02-14T09:17:16;95118.00;;;2.66;69.19
61345;BME280;47216;42.656;23.232;2023-02-14T09:19:42;95119.13;;;2.64;68.75
61345;BME280;47216;42.656;23.232;2023-02-14T09:22:10;95106.28;;;2.56;69.59
61345;BME280;47216;42.656;23.232;2023-02-14T09:24:38;95106.47;;;2.46;70.10
61345;BME280;47216;42.656;23.232;2023-02-14T09:27:05;95098.91;;;2.44;69.77
61345;BME280;47216;42.656;23.232;2023-02-14T09:29:32;95108.88;;;2.47;70.14
61345;BME280;47216;42.656;23.232;2023-02-14T09:32:00;95110.19;;;2.43;70.25
61345;BME280;47216;42.656;23.232;2023-02-14T09:34:26;95106.16;;;2.41;70.14
61345;BME280;47216;42.656;23.232;2023-02-14T09:36:53;95110.97;;;2.36;70.49
61345;BME280;47216;42.656;23.232;2023-02-14T09:39:21;95103.31;;;2.27;70.21
61345;BME280;47216;42.656;23.232;2023-02-14T09:41:51;95101.19;;;2.31;69.45
61345;BME280;47216;42.656;23.232;2023-02-14T09:44:23;95096.69;;;2.33;70.18
61345;BME280;47216;42.656;23.232;2023-02-14T09:46:52;95100.72;;;2.27;69.39
61345;BME280;47216;42.656;23.232;2023-02-14T09:49:28;95109.25;;;2.28;69.36
61345;BME280;47216;42.656;23.232;2023-02-14T09:51:55;95100.25;;;2.32;69.66
61345;BME280;47216;42.656;23.232;2023-02-14T09:54:25;95102.78;;;2.40;69.08
61345;BME280;47216;42.656;23.232;2023-02-14T09:56:54;95100.19;;;2.48;69.50
61345;BME280;47216;42.656;23.232;2023-02-14T09:59:23;95092.81;;;2.45;69.18
61345;BME280;47216;42.656;23.232;2023-02-14T10:01:52;95095.34;;;2.53;69.29
61345;BME280;47216;42.656;23.232;2023-02-14T10:04:23;95088.31;;;2.39;69.00
61345;BME280;47216;42.656;23.232;2023-02-14T10:06:53;95087.31;;;2.40;68.51
61345;BME280;47216;42.656;23.232;2023-02-14T10:09:38;95083.47;;;2.44;69.65
61345;BME280;47216;42.656;23.232;2023-02-14T10:12:09;95084.88;;;2.55;69.28
61345;BME280;47216;42.656;23.232;2023-02-14T10:14:39;95080.19;;;2.59;68.61
61345;BME280;47216;42.656;23.232;2023-02-14T10:17:07;95078.88;;;2.71;67.75
61345;BME280;47216;42.656;23.232;2023-02-14T10:19:37;95066.63;;;2.73;67.80
61345;BME280;47216;42.656;23.232;2023-02-14T10:22:06;95066.50;;;2.66;68.41
61345;BME280;47216;42.656;23.232;2023-02-14T10:24:37;95079.16;;;2.76;67.38
61345;BME280;47216;42.656;23.232;2023-02-14T10:27:08;95077.25;;;2.70;67.99
61345;BME280;47216;42.656;23.232;2023-02-14T10:29:37;95068.88;;;2.68;67.81
61345;BME280;47216;42.656;23.232;2023-02-14T10:32:03;95066.28;;;2.76;67.80
61345;BME280;47216;42.656;23.232;2023-02-14T10:34:38;95070.16;;;2.72;67.37
61345;BME280;47216;42.656;23.232;2023-02-14T10:37:14;95068.88;;;2.68;66.80
61345;BME280;47216;42.656;23.232;2023-02-14T10:39:53;95069.88;;;2.59;66.96
61345;BME280;47216;42.656;23.232;2023-02-14T10:42:23;95067.63;;;2.64;67.16
61345;BME280;47216;42.656;23.232;2023-02-14T10:44:53;95073.09;;;2.61;66.14
61345;BME280;47216;42.656;23.232;2023-02-14T10:47:25;95073.09;;;2.61;66.91
61345;BME280;47216;42.656;23.232;2023-02-14T10:49:54;95074.72;;;2.62;66.61
61345;BME280;47216;42.656;23.232;2023-02-14T10:52:24;95076.66;;;2.60;65.56
61345;BME280;47216;42.656;23.232;2023-02-14T10:54:54;95086.53;;;2.48;66.77
61345;BME280;47216;42.656;23.232;2023-02-14T10:57:22;95075.38;;;2.56;66.80
61345;BME280;47216;42.656;23.232;2023-02-14T10:59:52;95067.00;;;2.62;65.99
61345;BME280;47216;42.656;23.232;2023-02-14T11:02:21;95058.94;;;2.65;65.96
61345;BME280;47216;42.656;23.232;2023-02-14T11:04:49;95056.22;;;2.58;66.13
61345;BME280;47216;42.656;23.232;2023-02-14T11:07:17;95054.94;;;2.54;66.66
61345;BME280;47216;42.656;23.232;2023-02-14T11:09:45;95058.28;;;2.63;66.00
61345;BME280;47216;42.656;23.232;2023-02-14T11:12:15;95061.22;;;2.60;65.77
61345;BME280;47216;42.656;23.232;2023-02-14T11:15:00;95055.44;;;2.49;65.69
61345;BME280;47216;42.656;23.232;2023-02-14T11:17:32;95055.00;;;2.38;67.01
61345;BME280;47216;42.656;23.232;2023-02-14T11:20:01;95062.06;;;2.44;66.07
61345;BME280;47216;42.656;23.232;2023-02-14T11:22:32;95064.75;;;2.59;66.36
61345;BME280;47216;42.656;23.232;2023-02-14T11:25:03;95064.84;;;2.73;66.44
61345;BME280;47216;42.656;23.232;2023-02-14T11:27:31;95060.22;;;2.61;66.38
61345;BME280;47216;42.656;23.232;2023-02-14T11:29:58;95058.34;;;2.55;66.19
61345;BME280;47216;42.656;23.232;2023-02-14T11:32:27;95052.38;;;2.54;66.05
61345;BME280;47216;42.656;23.232;2023-02-14T11:34:55;95036.75;;;2.56;65.32
61345;BME280;47216;42.656;23.232;2023-02-14T11:37:25;95038.69;;;2.62;65.74
61345;BME280;47216;42.656;23.232;2023-02-14T11:39:53;95039.81;;;2.59;65.57
61345;BME280;47216;42.656;23.232;2023-02-14T11:42:32;95029.03;;;2.56;66.40
61345;BME280;47216;42.656;23.232;2023-02-14T11:44:59;95037.25;;;2.59;66.26
61345;BME280;47216;42.656;23.232;2023-02-14T11:47:27;95042.13;;;2.46;65.42
61345;BME280;47216;42.656;23.232;2023-02-14T11:49:55;95031.31;;;2.50;66.46
61345;BME280;47216;42.656;23.232;2023-02-14T11:52:22;95026.16;;;2.50;66.87
61345;BME280;47216;42.656;23.232;2023-02-14T11:54:50;95023.53;;;2.59;65.78
61345;BME280;47216;42.656;23.232;2023-02-14T11:57:19;95032.22;;;2.66;65.88
61345;BME280;47216;42.656;23.232;2023-02-14T11:59:48;95016.13;;;2.64;65.54
61345;BME280;47216;42.656;23.232;2023-02-14T12:02:28;95012.56;;;2.65;64.96
61345;BME280;47216;42.656;23.232;2023-02-14T12:04:57;95006.16;;;2.61;65.25
61345;BME280;47216;42.656;23.232;2023-02-14T12:07:26;95012.78;;;2.55;65.12
61345;BME280;47216;42.656;23.232;2023-02-14T12:12:48;95004.09;;;2.56;64.98
61345;BME280;47216;42.656;23.232;2023-02-14T12:15:27;95003.78;;;2.59;65.28
61345;BME280;47216;42.656;23.232;2023-02-14T12:17:57;94999.75;;;2.57;64.12
61345;BME280;47216;42.656;23.232;2023-02-14T12:20:26;94996.97;;;2.66;64.35
61345;BME280;47216;42.656;23.232;2023-02-14T12:23:00;94998.75;;;2.66;64.57
61345;BME280;47216;42.656;23.232;2023-02-14T12:25:31;94997.13;;;2.65;64.74
61345;BME280;47216;42.656;23.232;2023-02-14T12:28:02;94987.75;;;2.72;64.95
61345;BME280;47216;42.656;23.232;2023-02-14T12:30:33;94991.63;;;2.68;65.05
61345;BME280;47216;42.656;23.232;2023-02-14T12:33:00;94984.78;;;2.83;63.88
61345;BME280;47216;42.656;23.232;2023-02-14T12:35:33;94980.00;;;2.80;64.12
61345;BME280;47216;42.656;23.232;2023-02-14T12:38:06;94976.78;;;2.78;64.67
61345;BME280;47216;42.656;23.232;2023-02-14T12:40:39;94977.13;;;2.75;65.15
61345;BME280;47216;42.656;23.232;2023-02-14T12:43:13;94978.22;;;2.81;65.08
61345;BME280;47216;42.656;23.232;2023-02-14T12:45:53;94972.78;;;2.76;65.14
61345;BME280;47216;42.656;23.232;2023-02-14T12:48:25;94977.31;;;2.97;64.98
61345;BME280;47216;42.656;23.232;2023-02-14T12:50:55;94984.88;;;2.98;64.12
61345;BME280;47216;42.656;23.232;2023-02-14T12:53:34;94977.47;;;2.95;64.83
61345;BME280;47216;42.656;23.232;2023-02-14T12:56:09;94969.34;;;2.83;65.51
61345;BME280;47216;42.656;23.232;2023-02-14T12:58:43;94976.91;;;2.85;65.55
61345;BME280;47216;42.656;23.232;2023-02-14T13:03:59;94981.19;;;2.92;64.60
61345;BME280;47216;42.656;23.232;2023-02-14T13:06:29;94975.09;;;2.93;65.09
61345;BME280;47216;42.656;23.232;2023-02-14T13:09:03;94972.31;;;2.95;64.76
61345;BME280;47216;42.656;23.232;2023-02-14T13:11:38;94969.22;;;3.00;65.47
61345;BME280;47216;42.656;23.232;2023-02-14T13:14:13;94966.59;;;3.08;64.35
61345;BME280;47216;42.656;23.232;2023-02-14T13:16:43;94967.13;;;3.03;65.00
61345;BME280;47216;42.656;23.232;2023-02-14T13:19:14;94969.22;;;3.00;65.52
61345;BME280;47216;42.656;23.232;2023-02-14T13:21:46;94960.53;;;3.01;65.21
61345;BME280;47216;42.656;23.232;2023-02-14T13:24:15;94958.41;;;3.04;65.45
61345;BME280;47216;42.656;23.232;2023-02-14T13:26:43;94966.00;;;3.21;64.68